sensor_id;sensor_type;location;lat;lon;timestamp;pressure;altitude;pressure_sealevel;temperature;humidity
11124;BME280;5616;42.692;23.312;2024-03-08T00:00:27;95360.09;;;7.65;70.81
11124;BME280;5616;42.692;23.312;2024-03-08T00:02:52;95361.25;;;7.56;69.48
11124;BME280;5616;42.692;23.312;2024-03-08T00:05:19;95361.25;;;7.56;71.12
11124;BME280;5616;42.692;23.312;2024-03-08T00:07:45;95362.59;;;7.52;70.83
11124;BME280;5616;42.692;23.312;2024-03-08T00:10:12;95354.69;;;7.47;70.86
11124;BME280;5616;42.692;23.312;2024-03-08T00:12:42;95352.88;;;7.41;70.30
11124;BME280;5616;42.692;23.312;2024-03-08T00:15:09;95358.22;;;7.46;70.64
11124;BME280;5616;42.692;23.312;2024-03-08T00:17:36;95354.31;;;7.50;71.07
11124;BME280;5616;42.692;23.312;2024-03-08T00:20:02;95362.84;;;7.57;69.20
11124;BME280;5616;42.692;23.312;2024-03-08T00:22:34;95344.72;;;7.59;69.81
11124;BME280;5616;42.692;23.312;2024-03-08T00:24:59;95346.72;;;7.63;69.71
11124;BME280;5616;42.692;23.312;2024-03-08T00:27:25;95351.44;;;7.66;69.53
11124;BME280;5616;42.692;23.312;2024-03-08T00:29:50;95344.75;;;7.65;69.72
11124;BME280;5616;42.692;23.312;2024-03-08T00:32:16;95353.84;;;7.68;69.77
11124;BME280;5616;42.692;23.312;2024-03-08T00:34:42;95344.81;;;7.72;71.80
11124;BME280;5616;42.692;23.312;2024-03-08T00:37:08;95342.66;;;7.75;69.57
11124;BME280;5616;42.692;23.312;2024-03-08T00:39:34;95344.44;;;7.81;69.29
11124;BME280;5616;42.692;23.312;2024-03-08T00:41:59;95344.06;;;7.84;69.15
11124;BME280;5616;42.692;23.312;2024-03-08T00:44:25;95333.41;;;7.81;69.21
11124;BME280;5616;42.692;23.312;2024-03-08T00:46:50;95341.28;;;7.79;70.19
11124;BME280;5616;42.692;23.312;2024-03-08T00:49:16;95340.09;;;7.75;69.62
11124;BME280;5616;42.692;23.312;2024-03-08T00:51:42;95333.00;;;7.77;69.66
11124;BME280;5616;42.692;23.312;2024-03-08T00:54:08;95332.63;;;7.80;69.36
11124;BME280;5616;42.692;23.312;2024-03-08T00:56:34;95322.75;;;7.77;68.52
11124;BME280;5616;42.692;23.312;2024-03-08T00:59:01;95328.84;;;7.76;69.36
11124;BME280;5616;42.692;23.312;2024-03-08T01:01:28;95322.16;;;7.75;69.79
11124;BME280;5616;42.692;23.312;2024-03-08T01:03:53;95320.41;;;7.76;69.98
11124;BME280;5616;42.692;23.312;2024-03-08T01:06:19;95320.56;;;7.68;71.04
11124;BME280;5616;42.692;23.312;2024-03-08T01:08:45;95309.28;;;7.62;70.34
11124;BME280;5616;42.692;23.312;2024-03-08T01:11:13;95311.25;;;7.60;70.10
11124;BME280;5616;42.692;23.312;2024-03-08T01:13:39;95317.88;;;7.48;71.73
11124;BME280;5616;42.692;23.312;2024-03-08T01:16:05;95307.63;;;7.48;71.93
11124;BME280;5616;42.692;23.312;2024-03-08T01:18:30;95311.16;;;7.47;71.17
11124;BME280;5616;42.692;23.312;2024-03-08T01:20:56;95312.75;;;7.48;71.69
11124;BME280;5616;42.692;23.312;2024-03-08T01:23:22;95318.50;;;7.50;71.06
11124;BME280;5616;42.692;23.312;2024-03-08T01:25:48;95307.63;;;7.48;71.78
11124;BME280;5616;42.692;23.312;2024-03-08T01:28:17;95302.66;;;7.40;72.04
11124;BME280;5616;42.692;23.312;2024-03-08T01:30:42;95294.63;;;7.43;72.05
11124;BME280;5616;42.692;23.312;2024-03-08T01:33:08;95305.84;;;7.42;72.43
11124;BME280;5616;42.692;23.312;2024-03-08T01:35:34;95302.91;;;7.45;71.31
11124;BME280;5616;42.692;23.312;2024-03-08T01:37:59;95302.91;;;7.45;71.30
11124;BME280;5616;42.692;23.312;2024-03-08T01:40:25;95300.09;;;7.40;72.10
11124;BME280;5616;42.692;23.312;2024-03-08T01:42:50;95297.53;;;7.40;71.87
11124;BME280;5616;42.692;23.312;2024-03-08T01:45:16;95295.22;;;7.45;71.03
11124;BME280;5616;42.692;23.312;2024-03-08T01:47:41;95301.72;;;7.48;69.63
11124;BME280;5616;42.692;23.312;2024-03-08T01:50:07;95289.53;;;7.50;70.74
11124;BME280;5616;42.692;23.312;2024-03-08T01:52:34;95292.28;;;7.48;71.26
11124;BME280;5616;42.692;23.312;2024-03-08T01:55:02;95294.63;;;7.43;71.38
11124;BME280;5616;42.692;23.312;2024-03-08T01:57:31;95296.19;;;7.44;70.88
11124;BME280;5616;42.692;23.312;2024-03-08T01:59:57;95287.53;;;7.45;71.59
11124;BME280;5616;42.692;23.312;2024-03-08T02:02:22;95287.53;;;7.45;71.00
11124;BME280;5616;42.692;23.312;2024-03-08T02:04:48;95286.75;;;7.45;70.10
11124;BME280;5616;42.692;23.312;2024-03-08T02:07:14;95279.28;;;7.43;70.61
11124;BME280;5616;42.692;23.312;2024-03-08T02:09:39;95283.19;;;7.39;69.48
11124;BME280;5616;42.692;23.312;2024-03-08T02:12:05;95287.50;;;7.38;70.03
11124;BME280;5616;42.692;23.312;2024-03-08T02:14:31;95283.91;;;7.33;71.24
11124;BME280;5616;42.692;23.312;2024-03-08T02:17:01;95283.09;;;7.26;72.13
11124;BME280;5616;42.692;23.312;2024-03-08T02:19:27;95292.19;;;7.28;71.51
11124;BME280;5616;42.692;23.312;2024-03-08T02:21:53;95295.75;;;7.34;70.93
11124;BME280;5616;42.692;23.312;2024-03-08T02:24:37;95290.03;;;7.32;70.98
11124;BME280;5616;42.692;23.312;2024-03-08T02:27:02;95292.22;;;7.35;71.22
11124;BME280;5616;42.692;23.312;2024-03-08T02:29:28;95296.88;;;7.25;71.00
11124;BME280;5616;42.692;23.312;2024-03-08T02:31:54;95303.94;;;7.23;70.69
11124;BME280;5616;42.692;23.312;2024-03-08T02:34:20;95299.06;;;7.28;69.21
11124;BME280;5616;42.692;23.312;2024-03-08T02:36:46;95304.91;;;7.22;68.12
11124;BME280;5616;42.692;23.312;2024-03-08T02:39:12;95311.22;;;7.26;68.44
11124;BME280;5616;42.692;23.312;2024-03-08T02:41:37;95309.88;;;7.30;67.78
11124;BME280;5616;42.692;23.312;2024-03-08T02:44:03;95299.28;;;7.33;67.87
11124;BME280;5616;42.692;23.312;2024-03-08T02:46:29;95302.44;;;7.35;67.73
11124;BME280;5616;42.692;23.312;2024-03-08T02:48:55;95295.75;;;7.34;65.35
11124;BME280;5616;42.692;23.312;2024-03-08T02:51:21;95298.13;;;7.35;65.53
11124;BME280;5616;42.692;23.312;2024-03-08T02:53:46;95301.44;;;7.36;65.89
11124;BME280;5616;42.692;23.312;2024-03-08T02:56:14;95306.56;;;7.36;66.84
11124;BME280;5616;42.692;23.312;2024-03-08T02:58:42;95301.00;;;7.26;67.93
11124;BME280;5616;42.692;23.312;2024-03-08T03:01:08;95305.94;;;7.27;66.23
11124;BME280;5616;42.692;23.312;2024-03-08T03:03:34;95304.97;;;7.28;65.68
11124;BME280;5616;42.692;23.312;2024-03-08T03:05:59;95303.19;;;7.29;67.35
11124;BME280;5616;42.692;23.312;2024-03-08T03:08:26;95305.53;;;7.24;67.72
11124;BME280;5616;42.692;23.312;2024-03-08T03:10:51;95302.56;;;7.20;65.86
11124;BME280;5616;42.692;23.312;2024-03-08T03:13:16;95307.47;;;7.22;65.73
11124;BME280;5616;42.692;23.312;2024-03-08T03:15:46;95310.66;;;7.24;65.08
11124;BME280;5616;42.692;23.312;2024-03-08T03:18:11;95309.69;;;7.25;63.45
11124;BME280;5616;42.692;23.312;2024-03-08T03:20:37;95318.91;;;7.26;63.55
11124;BME280;5616;42.692;23.312;2024-03-08T03:23:06;95310.50;;;7.32;63.98
11124;BME280;5616;42.692;23.312;2024-03-08T03:25:33;95320.91;;;7.30;62.91
11124;BME280;5616;42.692;23.312;2024-03-08T03:28:03;95318.53;;;7.29;62.59
11124;BME280;5616;42.692;23.312;2024-03-08T03:30:30;95320.13;;;7.30;62.78
11124;BME280;5616;42.692;23.312;2024-03-08T03:32:59;95319.75;;;7.33;62.51
11124;BME280;5616;42.692;23.312;2024-03-08T03:35:32;95323.31;;;7.32;62.20
11124;BME280;5616;42.692;23.312;2024-03-08T03:37:58;95326.59;;;7.26;63.60
11124;BME280;5616;42.692;23.312;2024-03-08T03:40:33;95330.34;;;7.30;62.42
11124;BME280;5616;42.692;23.312;2024-03-08T03:42:59;95332.31;;;7.28;63.24
11124;BME280;5616;42.692;23.312;2024-03-08T03:45:24;95336.66;;;7.27;63.18
11124;BME280;5616;42.692;23.312;2024-03-08T03:47:51;95339.00;;;7.29;60.98
11124;BME280;5616;42.692;23.312;2024-03-08T03:50:20;95340.22;;;7.33;61.76
11124;BME280;5616;42.692;23.312;2024-03-08T03:52:46;95340.63;;;7.36;61.88
11124;BME280;5616;42.692;23.312;2024-03-08T03:55:12;95342.63;;;7.41;61.87
11124;BME280;5616;42.692;23.312;2024-03-08T03:57:39;95351.66;;;7.37;61.28
11124;BME280;5616;42.692;23.312;2024-03-08T04:00:05;95354.47;;;7.42;64.10
11124;BME280;5616;42.692;23.312;2024-03-08T04:02:31;95349.09;;;7.37;61.33
11124;BME280;5616;42.692;23.312;2024-03-08T04:04:57;95353.25;;;7.38;63.27
11124;BME280;5616;42.692;23.312;2024-03-08T04:07:22;95357.16;;;7.34;63.13
11124;BME280;5616;42.692;23.312;2024-03-08T04:09:48;95354.34;;;7.29;64.39
11124;BME280;5616;42.692;23.312;2024-03-08T04:12:13;95359.25;;;7.24;62.81
11124;BME280;5616;42.692;23.312;2024-03-08T04:14:42;95363.19;;;7.26;63.32
11124;BME280;5616;42.692;23.312;2024-03-08T04:17:08;95365.34;;;7.23;63.57
11124;BME280;5616;42.692;23.312;2024-03-08T04:19:38;95364.94;;;7.19;65.25
11124;BME280;5616;42.692;23.312;2024-03-08T04:22:05;95376.06;;;7.12;65.86
11124;BME280;5616;42.692;23.312;2024-03-08T04:24:33;95364.88;;;7.13;64.74
11124;BME280;5616;42.692;23.312;2024-03-08T04:26:58;95368.03;;;7.15;64.71
11124;BME280;5616;42.692;23.312;2024-03-08T04:29:24;95370.00;;;7.13;65.36
11124;BME280;5616;42.692;23.312;2024-03-08T04:31:50;95378.03;;;7.10;63.59
11124;BME280;5616;42.692;23.312;2024-03-08T04:34:22;95383.75;;;7.12;64.12
11124;BME280;5616;42.692;23.312;2024-03-08T04:36:49;95383.38;;;7.15;65.60
11124;BME280;5616;42.692;23.312;2024-03-08T04:39:14;95388.75;;;7.20;65.71
11124;BME280;5616;42.692;23.312;2024-03-08T04:41:42;95389.72;;;7.19;66.07
11124;BME280;5616;42.692;23.312;2024-03-08T04:44:09;95390.09;;;7.16;65.20
11124;BME280;5616;42.692;23.312;2024-03-08T04:46:35;95390.69;;;7.18;66.06
11124;BME280;5616;42.692;23.312;2024-03-08T04:49:01;95390.09;;;7.16;65.63
11124;BME280;5616;42.692;23.312;2024-03-08T04:51:26;95390.47;;;7.13;65.17
11124;BME280;5616;42.692;23.312;2024-03-08T04:53:52;95393.63;;;7.15;66.55
11124;BME280;5616;42.692;23.312;2024-03-08T04:56:17;95389.25;;;7.09;67.45
11124;BME280;5616;42.692;23.312;2024-03-08T04:58:45;95395.44;;;7.00;67.45
11124;BME280;5616;42.692;23.312;2024-03-08T05:01:12;95397.66;;;7.03;66.69
11124;BME280;5616;42.692;23.312;2024-03-08T05:03:38;95399.06;;;7.05;66.88
11124;BME280;5616;42.692;23.312;2024-03-08T05:06:04;95401.78;;;7.04;68.33
11124;BME280;5616;42.692;23.312;2024-03-08T05:08:30;95404.72;;;6.79;68.46
11124;BME280;5616;42.692;23.312;2024-03-08T05:10:55;95405.94;;;6.62;69.29
11124;BME280;5616;42.692;23.312;2024-03-08T05:13:21;95401.41;;;6.64;68.55
11124;BME280;5616;42.692;23.312;2024-03-08T05:15:48;95405.94;;;6.62;69.02
11124;BME280;5616;42.692;23.312;2024-03-08T05:18:15;95408.13;;;6.65;69.27
11124;BME280;5616;42.692;23.312;2024-03-08T05:20:41;95416.00;;;6.70;69.19
11124;BME280;5616;42.692;23.312;2024-03-08T05:23:07;95413.34;;;6.78;68.43
11124;BME280;5616;42.692;23.312;2024-03-08T05:25:33;95419.69;;;6.82;67.60
11124;BME280;5616;42.692;23.312;2024-03-08T05:27:59;95431.13;;;6.86;65.96
11124;BME280;5616;42.692;23.312;2024-03-08T05:30:24;95433.94;;;6.92;66.47
11124;BME280;5616;42.692;23.312;2024-03-08T05:32:50;95439.06;;;6.92;65.31
11124;BME280;5616;42.692;23.312;2024-03-08T05:35:15;95446.66;;;6.85;66.14
11124;BME280;5616;42.692;23.312;2024-03-08T05:37:42;95436.13;;;6.73;66.01
11124;BME280;5616;42.692;23.312;2024-03-08T05:40:10;95443.22;;;6.78;66.72
11124;BME280;5616;42.692;23.312;2024-03-08T05:42:36;95446.00;;;6.76;65.75
11124;BME280;5616;42.692;23.312;2024-03-08T05:45:05;95451.81;;;6.70;65.38
11124;BME280;5616;42.692;23.312;2024-03-08T05:47:32;95448.28;;;6.71;65.97
11124;BME280;5616;42.692;23.312;2024-03-08T05:49:58;95452.91;;;6.61;65.55
11124;BME280;5616;42.692;23.312;2024-03-08T05:52:24;95466.72;;;6.67;65.93
11124;BME280;5616;42.692;23.312;2024-03-08T05:54:51;95459.53;;;6.56;66.59
11124;BME280;5616;42.692;23.312;2024-03-08T05:57:17;95467.72;;;6.51;67.09
11124;BME280;5616;42.692;23.312;2024-03-08T05:59:43;95466.41;;;6.55;67.51
11124;BME280;5616;42.692;23.312;2024-03-08T06:02:08;95478.56;;;6.53;67.90
11124;BME280;5616;42.692;23.312;2024-03-08T06:04:33;95475.03;;;6.54;67.46
11124;BME280;5616;42.692;23.312;2024-03-08T06:06:59;95469.03;;;6.62;66.72
11124;BME280;5616;42.692;23.312;2024-03-08T06:09:25;95471.75;;;6.60;67.42
11124;BME280;5616;42.692;23.312;2024-03-08T06:11:51;95478.09;;;6.64;68.23
11124;BME280;5616;42.692;23.312;2024-03-08T06:14:18;95487.97;;;6.67;67.27
11124;BME280;5616;42.692;23.312;2024-03-08T06:16:47;95475.75;;;6.63;66.83
11124;BME280;5616;42.692;23.312;2024-03-08T06:19:13;95486.03;;;6.69;66.21
11124;BME280;5616;42.692;23.312;2024-03-08T06:21:39;95481.78;;;6.76;66.70
11124;BME280;5616;42.692;23.312;2024-03-08T06:24:05;95492.44;;;6.80;65.29
11124;BME280;5616;42.692;23.312;2024-03-08T06:26:30;95488.25;;;6.58;65.04
11124;BME280;5616;42.692;23.312;2024-03-08T06:28:56;95499.28;;;6.58;66.86
11124;BME280;5616;42.692;23.312;2024-03-08T06:31:22;95496.44;;;6.53;66.82
11124;BME280;5616;42.692;23.312;2024-03-08T06:33:47;95497.88;;;6.41;67.10
11124;BME280;5616;42.692;23.312;2024-03-08T06:36:18;95501.41;;;6.40;67.02
11124;BME280;5616;42.692;23.312;2024-03-08T06:38:50;95497.53;;;6.44;67.26
11124;BME280;5616;42.692;23.312;2024-03-08T06:41:16;95492.41;;;6.44;66.76
11124;BME280;5616;42.692;23.312;2024-03-08T06:43:43;95495.56;;;6.46;66.70
11124;BME280;5616;42.692;23.312;2024-03-08T06:46:09;95501.56;;;6.53;67.65
11124;BME280;5616;42.692;23.312;2024-03-08T06:48:35;95506.00;;;6.45;66.65
11124;BME280;5616;42.692;23.312;2024-03-08T06:51:03;95504.56;;;6.42;67.30
11124;BME280;5616;42.692;23.312;2024-03-08T06:53:29;95506.44;;;6.48;66.33
11124;BME280;5616;42.692;23.312;2024-03-08T06:55:55;95512.66;;;6.60;66.65
11124;BME280;5616;42.692;23.312;2024-03-08T06:58:21;95507.81;;;6.65;67.42
11124;BME280;5616;42.692;23.312;2024-03-08T07:00:46;95504.53;;;6.71;66.39
11124;BME280;5616;42.692;23.312;2024-03-08T07:03:12;95508.50;;;6.74;66.32
11124;BME280;5616;42.692;23.312;2024-03-08T07:05:42;95511.31;;;6.79;66.46
11124;BME280;5616;42.692;23.312;2024-03-08T07:08:08;95507.06;;;6.86;66.82
11124;BME280;5616;42.692;23.312;2024-03-08T07:10:33;95514.03;;;6.92;67.11
11124;BME280;5616;42.692;23.312;2024-03-08T07:13:00;95515.84;;;6.98;66.51
11124;BME280;5616;42.692;23.312;2024-03-08T07:15:27;95509.03;;;7.05;66.84
11124;BME280;5616;42.692;23.312;2024-03-08T07:17:54;95514.84;;;7.14;67.80
11124;BME280;5616;42.692;23.312;2024-03-08T07:20:20;95516.41;;;7.15;64.93
11124;BME280;5616;42.692;23.312;2024-03-08T07:22:47;95515.06;;;7.19;64.47
11124;BME280;5616;42.692;23.312;2024-03-08T07:25:14;95515.91;;;7.05;63.97
11124;BME280;5616;42.692;23.312;2024-03-08T07:27:55;95526.16;;;7.05;65.55
11124;BME280;5616;42.692;23.312;2024-03-08T07:30:22;95517.16;;;7.09;64.38
11124;BME280;5616;42.692;23.312;2024-03-08T07:33:07;95521.03;;;7.05;67.15
11124;BME280;5616;42.692;23.312;2024-03-08T07:35:33;95530.19;;;7.14;65.50
11124;BME280;5616;42.692;23.312;2024-03-08T07:38:05;95523.72;;;7.18;66.82
11124;BME280;5616;42.692;23.312;2024-03-08T07:40:37;95532.28;;;7.25;66.20
11124;BME280;5616;42.692;23.312;2024-03-08T07:43:08;95529.97;;;7.30;64.85
11124;BME280;5616;42.692;23.312;2024-03-08T07:45:34;95530.81;;;7.37;63.78
11124;BME280;5616;42.692;23.312;2024-03-08T07:48:01;95527.34;;;7.45;64.08
11124;BME280;5616;42.692;23.312;2024-03-08T07:50:28;95529.00;;;7.52;63.35
11124;BME280;5616;42.692;23.312;2024-03-08T07:52:54;95526.31;;;7.60;63.07
11124;BME280;5616;42.692;23.312;2024-03-08T07:55:20;95525.81;;;7.71;64.73
11124;BME280;5616;42.692;23.312;2024-03-08T07:57:45;95537.03;;;7.70;65.90
11124;BME280;5616;42.692;23.312;2024-03-08T08:00:13;95534.97;;;7.59;66.02
11124;BME280;5616;42.692;23.312;2024-03-08T08:02:46;95533.25;;;7.45;65.67
11124;BME280;5616;42.692;23.312;2024-03-08T08:05:12;95524.97;;;7.43;64.54
11124;BME280;5616;42.692;23.312;2024-03-08T08:07:39;95530.69;;;7.45;64.66
11124;BME280;5616;42.692;23.312;2024-03-08T08:10:06;95528.72;;;7.47;65.29
11124;BME280;5616;42.692;23.312;2024-03-08T08:12:32;95529.41;;;7.56;65.78
11124;BME280;5616;42.692;23.312;2024-03-08T08:14:59;95528.66;;;7.62;66.26
11124;BME280;5616;42.692;23.312;2024-03-08T08:17:25;95533.88;;;7.68;65.12
11124;BME280;5616;42.692;23.312;2024-03-08T08:19:51;95524.31;;;7.83;64.22
11124;BME280;5616;42.692;23.312;2024-03-08T08:22:16;95530.91;;;7.93;62.95
11124;BME280;5616;42.692;23.312;2024-03-08T08:24:43;95527.03;;;8.03;61.93
11124;BME280;5616;42.692;23.312;2024-03-08T08:27:09;95524.28;;;8.05;62.11
11124;BME280;5616;42.692;23.312;2024-03-08T08:29:34;95518.28;;;8.19;60.82
11124;BME280;5616;42.692;23.312;2024-03-08T08:32:00;95524.72;;;8.36;59.06
11124;BME280;5616;42.692;23.312;2024-03-08T08:34:26;95525.16;;;8.46;58.77
11124;BME280;5616;42.692;23.312;2024-03-08T08:36:52;95530.41;;;8.31;57.53
11124;BME280;5616;42.692;23.312;2024-03-08T08:39:18;95527.19;;;8.23;59.91
11124;BME280;5616;42.692;23.312;2024-03-08T08:41:44;95523.75;;;8.37;58.64
11124;BME280;5616;42.692;23.312;2024-03-08T08:44:09;95521.03;;;8.45;59.05
11124;BME280;5616;42.692;23.312;2024-03-08T08:46:36;95513.16;;;8.53;57.77
11124;BME280;5616;42.692;23.312;2024-03-08T08:49:03;95507.31;;;8.66;57.97
11124;BME280;5616;42.692;23.312;2024-03-08T08:51:29;95512.88;;;8.76;58.58
11124;BME280;5616;42.692;23.312;2024-03-08T08:53:54;95511.34;;;8.88;56.74
11124;BME280;5616;42.692;23.312;2024-03-08T08:56:21;95506.94;;;8.75;58.42
11124;BME280;5616;42.692;23.312;2024-03-08T08:58:47;95506.00;;;8.90;56.60
11124;BME280;5616;42.692;23.312;2024-03-08T09:01:14;95506.56;;;8.78;59.59
11124;BME280;5616;42.692;23.312;2024-03-08T09:03:40;95510.25;;;9.17;74.46
11124;BME280;5616;42.692;23.312;2024-03-08T09:06:12;95505.16;;;10.42;65.94
11124;BME280;5616;42.692;23.312;2024-03-08T09:08:39;95505.63;;;10.76;56.72
11124;BME280;5616;42.692;23.312;2024-03-08T09:11:05;95506.97;;;10.79;51.70
11124;BME280;5616;42.692;23.312;2024-03-08T09:13:31;95507.75;;;10.93;54.13
11124;BME280;5616;42.692;23.312;2024-03-08T09:15:56;95508.50;;;11.00;49.70
11124;BME280;5616;42.692;23.312;2024-03-08T09:18:22;95496.53;;;11.12;51.89
11124;BME280;5616;42.692;23.312;2024-03-08T09:20:49;95501.31;;;11.08;52.43
11124;BME280;5616;42.692;23.312;2024-03-08T09:23:14;95501.03;;;10.78;52.24
11124;BME280;5616;42.692;23.312;2024-03-08T09:25:42;95497.91;;;10.76;51.00
11124;BME280;5616;42.692;23.312;2024-03-08T09:28:09;95504.16;;;10.94;48.66
11124;BME280;5616;42.692;23.312;2024-03-08T09:30:34;95494.44;;;10.51;51.50
11124;BME280;5616;42.692;23.312;2024-03-08T09:33:00;95501.50;;;10.62;49.43
11124;BME280;5616;42.692;23.312;2024-03-08T09:35:26;95495.25;;;10.45;51.41
11124;BME280;5616;42.692;23.312;2024-03-08T09:37:51;95502.19;;;10.38;51.12
11124;BME280;5616;42.692;23.312;2024-03-08T09:40:18;95499.63;;;10.38;51.14
11124;BME280;5616;42.692;23.312;2024-03-08T09:42:45;95505.13;;;10.35;51.40
11124;BME280;5616;42.692;23.312;2024-03-08T09:45:12;95502.59;;;10.22;52.46
11124;BME280;5616;42.692;23.312;2024-03-08T09:47:39;95500.03;;;9.96;53.26
11124;BME280;5616;42.692;23.312;2024-03-08T09:50:07;95507.94;;;9.88;53.28
11124;BME280;5616;42.692;23.312;2024-03-08T09:52:36;95505.97;;;9.63;52.45
11124;BME280;5616;42.692;23.312;2024-03-08T09:55:05;95504.78;;;9.53;52.93
11124;BME280;5616;42.692;23.312;2024-03-08T09:57:32;95500.63;;;9.52;52.61
11124;BME280;5616;42.692;23.312;2024-03-08T09:59:59;95500.03;;;9.43;54.08
11124;BME280;5616;42.692;23.312;2024-03-08T10:02:24;95507.91;;;9.55;52.45
11124;BME280;5616;42.692;23.312;2024-03-08T10:04:51;95494.88;;;9.69;52.55
11124;BME280;5616;42.692;23.312;2024-03-08T10:07:18;95496.50;;;9.83;54.50
11124;BME280;5616;42.692;23.312;2024-03-08T10:09:44;95496.44;;;10.10;54.54
11124;BME280;5616;42.692;23.312;2024-03-08T10:12:18;95499.47;;;10.20;53.01
11124;BME280;5616;42.692;23.312;2024-03-08T10:14:45;95502.97;;;10.32;53.09
11124;BME280;5616;42.692;23.312;2024-03-08T10:17:12;95500.00;;;10.35;51.47
11124;BME280;5616;42.692;23.312;2024-03-08T10:19:56;95496.47;;;10.16;53.60
11124;BME280;5616;42.692;23.312;2024-03-08T10:22:25;95499.63;;;10.12;54.32
11124;BME280;5616;42.692;23.312;2024-03-08T10:24:51;95500.03;;;10.09;53.74
11124;BME280;5616;42.692;23.312;2024-03-08T10:27:17;95501.97;;;10.13;53.13
11124;BME280;5616;42.692;23.312;2024-03-08T10:29:42;95494.47;;;9.99;51.83
11124;BME280;5616;42.692;23.312;2024-03-08T10:32:11;95495.28;;;9.93;49.99
11124;BME280;5616;42.692;23.312;2024-03-08T10:34:40;95489.38;;;9.85;49.98
11124;BME280;5616;42.692;23.312;2024-03-08T10:37:12;95494.13;;;9.75;50.19
11124;BME280;5616;42.692;23.312;2024-03-08T10:39:46;95484.63;;;9.69;51.71
11124;BME280;5616;42.692;23.312;2024-03-08T10:42:16;95481.47;;;9.67;53.28
11124;BME280;5616;42.692;23.312;2024-03-08T10:45:05;95479.91;;;9.79;52.73
11124;BME280;5616;42.692;23.312;2024-03-08T10:47:40;95479.28;;;9.91;53.74
11124;BME280;5616;42.692;23.312;2024-03-08T10:50:10;95471.16;;;10.00;50.38
11124;BME280;5616;42.692;23.312;2024-03-08T10:52:38;95478.47;;;10.23;50.47
11124;BME280;5616;42.692;23.312;2024-03-08T10:55:05;95468.34;;;10.41;52.42
11124;BME280;5616;42.692;23.312;2024-03-08T10:57:38;95468.28;;;10.54;51.33
11124;BME280;5616;42.692;23.312;2024-03-08T11:00:07;95468.69;;;10.51;51.05
11124;BME280;5616;42.692;23.312;2024-03-08T11:02:35;95466.53;;;10.48;49.94
11124;BME280;5616;42.692;23.312;2024-03-08T11:05:03;95464.75;;;10.42;50.96
11124;BME280;5616;42.692;23.312;2024-03-08T11:07:33;95459.81;;;10.47;48.30
11124;BME280;5616;42.692;23.312;2024-03-08T11:10:04;95458.06;;;10.41;49.52
11124;BME280;5616;42.692;23.312;2024-03-08T11:12:36;95455.50;;;10.28;51.10
11124;BME280;5616;42.692;23.312;2024-03-08T11:15:10;95455.28;;;10.36;51.84
11124;BME280;5616;42.692;23.312;2024-03-08T11:20:24;95449.97;;;10.31;51.94
11124;BME280;5616;42.692;23.312;2024-03-08T11:23:00;95451.75;;;10.37;51.51
11124;BME280;5616;42.692;23.312;2024-03-08T11:25:40;95448.94;;;10.45;49.39
11124;BME280;5616;42.692;23.312;2024-03-08T11:28:17;95454.88;;;10.39;50.49
11124;BME280;5616;42.692;23.312;2024-03-08T11:30:44;95447.00;;;10.34;51.00
11124;BME280;5616;42.692;23.312;2024-03-08T11:33:16;95446.63;;;10.30;49.83
11124;BME280;5616;42.692;23.312;2024-03-08T11:35:43;95442.47;;;10.29;51.33
11124;BME280;5616;42.692;23.312;2024-03-08T11:38:11;95431.38;;;10.29;51.81
11124;BME280;5616;42.692;23.312;2024-03-08T11:40:39;95437.47;;;10.41;49.79
11124;BME280;5616;42.692;23.312;2024-03-08T11:43:05;95428.91;;;10.54;49.58
11124;BME280;5616;42.692;23.312;2024-03-08T11:45:34;95430.13;;;10.51;49.70
11124;BME280;5616;42.692;23.312;2024-03-08T11:48:02;95433.50;;;10.45;50.49
11124;BME280;5616;42.692;23.312;2024-03-08T11:50:29;95437.00;;;10.57;50.36
11124;BME280;5616;42.692;23.312;2024-03-08T11:53:00;95432.41;;;10.72;51.86
11124;BME280;5616;42.692;23.312;2024-03-08T11:55:27;95434.09;;;10.92;50.43
11124;BME280;5616;42.692;23.312;2024-03-08T11:58:00;95432.50;;;10.91;49.18
11124;BME280;5616;42.692;23.312;2024-03-08T12:00:26;95428.34;;;10.90;47.67
11124;BME280;5616;42.692;23.312;2024-03-08T12:03:02;95426.56;;;10.90;50.82
11124;BME280;5616;42.692;23.312;2024-03-08T12:05:28;95426.38;;;10.92;49.99
11124;BME280;5616;42.692;23.312;2024-03-08T12:07:57;95431.50;;;10.92;48.96
11124;BME280;5616;42.692;23.312;2024-03-08T12:10:24;95429.69;;;10.99;47.67
11124;BME280;5616;42.692;23.312;2024-03-08T12:12:54;95430.00;;;11.09;49.33
11124;BME280;5616;42.692;23.312;2024-03-08T12:15:21;95434.06;;;11.23;48.73
11124;BME280;5616;42.692;23.312;2024-03-08T12:17:49;95426.34;;;11.23;47.15
11124;BME280;5616;42.692;23.312;2024-03-08T12:20:24;95423.22;;;11.21;47.33
11124;BME280;5616;42.692;23.312;2024-03-08T12:22:54;95423.22;;;11.21;46.10
11124;BME280;5616;42.692;23.312;2024-03-08T12:25:26;95421.19;;;11.23;46.74
11124;BME280;5616;42.692;23.312;2024-03-08T12:27:52;95425.31;;;11.30;48.24
11124;BME280;5616;42.692;23.312;2024-03-08T12:30:26;95412.47;;;11.24;47.56
11124;BME280;5616;42.692;23.312;2024-03-08T12:32:58;95414.94;;;11.12;47.19
11124;BME280;5616;42.692;23.312;2024-03-08T12:35:28;95421.78;;;10.94;48.33
11124;BME280;5616;42.692;23.312;2024-03-08T12:37:58;95415.47;;;10.90;48.83
11124;BME280;5616;42.692;23.312;2024-03-08T12:42:57;95407.94;;;10.95;49.42
11124;BME280;5616;42.692;23.312;2024-03-08T12:45:23;95405.09;;;11.03;49.99
11124;BME280;5616;42.692;23.312;2024-03-08T12:47:53;95404.28;;;11.09;48.05
11124;BME280;5616;42.692;23.312;2024-03-08T12:50:20;95406.59;;;11.17;48.39
11124;BME280;5616;42.692;23.312;2024-03-08T12:52:46;95406.22;;;11.13;48.49
11124;BME280;5616;42.692;23.312;2024-03-08T12:55:11;95396.28;;;11.17;49.42
11124;BME280;5616;42.692;23.312;2024-03-08T12:57:38;95395.31;;;11.18;46.39
11124;BME280;5616;42.692;23.312;2024-03-08T13:00:04;95397.81;;;11.24;46.82
11124;BME280;5616;42.692;23.312;2024-03-08T13:02:30;95402.59;;;11.21;47.17
11124;BME280;5616;42.692;23.312;2024-03-08T13:04:58;95397.88;;;11.18;45.37
11124;BME280;5616;42.692;23.312;2024-03-08T13:07:24;95399.97;;;11.03;47.54
11124;BME280;5616;42.692;23.312;2024-03-08T13:09:54;95404.50;;;11.01;47.89
11124;BME280;5616;42.692;23.312;2024-03-08T13:12:21;95392.00;;;11.11;49.00